sensor_id;sensor_type;location;lat;lon;timestamp;P1;durP1;ratioP1;P2;durP2;ratioP2
17993;SDS011;9122;48.406;9.984;2022-07-10T00:01:07;3.78;;;3.55;;
17993;SDS011;9122;48.406;9.984;2022-07-10T00:03:52;3.25;;;3.05;;
17993;SDS011;9122;48.406;9.984;2022-07-10T00:06:37;3.92;;;3.63;;
17993;SDS011;9122;48.406;9.984;2022-07-10T00:09:24;3.85;;;3.65;;
17993;SDS011;9122;48.406;9.984;2022-07-10T00:12:11;3.40;;;3.17;;
17993;SDS011;9122;48.406;9.984;2022-07-10T00:14:55;3.53;;;3.33;;
17993;SDS011;9122;48.406;9.984;2022-07-10T00:17:39;3.95;;;3.65;;
17993;SDS011;9122;48.406;9.984;2022-07-10T00:20:24;3.97;;;3.75;;
17993;SDS011;9122;48.406;9.984;2022-07-10T00:23:09;3.83;;;3.63;;
17993;SDS011;9122;48.406;9.984;2022-07-10T00:25:53;3.63;;;3.33;;
17993;SDS011;9122;48.406;9.984;2022-07-10T00:28:37;3.80;;;3.50;;
17993;SDS011;9122;48.406;9.984;2022-07-10T00:31:22;4.15;;;3.83;;
17993;SDS011;9122;48.406;9.984;2022-07-10T00:34:07;4.18;;;3.88;;
17993;SDS011;9122;48.406;9.984;2022-07-10T00:36:51;3.95;;;3.75;;
17993;SDS011;9122;48.406;9.984;2022-07-10T00:39:36;4.00;;;3.75;;
17993;SDS011;9122;48.406;9.984;2022-07-10T00:42:21;3.65;;;3.42;;
17993;SDS011;9122;48.406;9.984;2022-07-10T00:45:05;3.95;;;3.67;;
17993;SDS011;9122;48.406;9.984;2022-07-10T00:47:51;5.53;;;3.85;;
17993;SDS011;9122;48.406;9.984;2022-07-10T00:50:35;4.28;;;3.97;;
17993;SDS011;9122;48.406;9.984;2022-07-10T00:53:20;3.97;;;3.67;;
17993;SDS011;9122;48.406;9.984;2022-07-10T00:56:05;4.95;;;3.83;;
17993;SDS011;9122;48.406;9.984;2022-07-10T00:58:50;4.30;;;4.00;;
17993;SDS011;9122;48.406;9.984;2022-07-10T01:01:35;4.32;;;3.92;;
17993;SDS011;9122;48.406;9.984;2022-07-10T01:04:20;4.05;;;3.75;;
17993;SDS011;9122;48.406;9.984;2022-07-10T01:07:05;4.25;;;3.95;;
17993;SDS011;9122;48.406;9.984;2022-07-10T01:09:50;4.18;;;3.80;;
17993;SDS011;9122;48.406;9.984;2022-07-10T01:12:34;4.60;;;4.20;;
17993;SDS011;9122;48.406;9.984;2022-07-10T01:15:19;4.30;;;4.00;;
17993;SDS011;9122;48.406;9.984;2022-07-10T01:18:04;4.95;;;4.50;;
17993;SDS011;9122;48.406;9.984;2022-07-10T01:20:52;3.78;;;3.55;;
17993;SDS011;9122;48.406;9.984;2022-07-10T01:23:38;4.60;;;4.20;;
17993;SDS011;9122;48.406;9.984;2022-07-10T01:26:22;4.53;;;4.13;;
17993;SDS011;9122;48.406;9.984;2022-07-10T01:29:07;4.63;;;4.32;;
17993;SDS011;9122;48.406;9.984;2022-07-10T01:31:52;3.85;;;3.65;;
17993;SDS011;9122;48.406;9.984;2022-07-10T01:34:37;4.13;;;3.83;;
17993;SDS011;9122;48.406;9.984;2022-07-10T01:37:22;4.75;;;4.35;;
17993;SDS011;9122;48.406;9.984;2022-07-10T01:40:07;3.70;;;3.50;;
17993;SDS011;9122;48.406;9.984;2022-07-10T01:42:52;4.15;;;3.85;;
17993;SDS011;9122;48.406;9.984;2022-07-10T01:45:37;4.32;;;4.05;;
17993;SDS011;9122;48.406;9.984;2022-07-10T01:48:21;4.28;;;3.88;;
17993;SDS011;9122;48.406;9.984;2022-07-10T01:51:07;4.47;;;4.18;;
17993;SDS011;9122;48.406;9.984;2022-07-10T01:53:52;4.43;;;4.13;;
17993;SDS011;9122;48.406;9.984;2022-07-10T01:56:37;4.07;;;3.78;;
17993;SDS011;9122;48.406;9.984;2022-07-10T01:59:22;5.13;;;4.75;;
17993;SDS011;9122;48.406;9.984;2022-07-10T02:02:06;3.97;;;3.78;;
17993;SDS011;9122;48.406;9.984;2022-07-10T02:04:51;4.30;;;3.90;;
17993;SDS011;9122;48.406;9.984;2022-07-10T02:07:35;4.55;;;4.10;;
17993;SDS011;9122;48.406;9.984;2022-07-10T02:10:20;5.50;;;4.27;;
17993;SDS011;9122;48.406;9.984;2022-07-10T02:13:05;3.78;;;3.58;;
17993;SDS011;9122;48.406;9.984;2022-07-10T02:15:49;4.18;;;3.90;;
17993;SDS011;9122;48.406;9.984;2022-07-10T02:18:34;4.43;;;4.10;;
17993;SDS011;9122;48.406;9.984;2022-07-10T02:21:18;3.97;;;3.67;;
17993;SDS011;9122;48.406;9.984;2022-07-10T02:24:02;4.35;;;4.00;;
17993;SDS011;9122;48.406;9.984;2022-07-10T02:26:48;4.28;;;3.90;;
17993;SDS011;9122;48.406;9.984;2022-07-10T02:29:32;6.57;;;3.92;;
17993;SDS011;9122;48.406;9.984;2022-07-10T02:32:17;6.30;;;4.40;;
17993;SDS011;9122;48.406;9.984;2022-07-10T02:35:01;4.00;;;3.75;;
17993;SDS011;9122;48.406;9.984;2022-07-10T02:37:46;4.28;;;3.97;;
17993;SDS011;9122;48.406;9.984;2022-07-10T02:40:30;4.40;;;4.10;;
17993;SDS011;9122;48.406;9.984;2022-07-10T02:43:14;4.90;;;4.20;;
17993;SDS011;9122;48.406;9.984;2022-07-10T02:45:59;3.80;;;3.60;;
17993;SDS011;9122;48.406;9.984;2022-07-10T02:48:43;5.07;;;4.43;;
17993;SDS011;9122;48.406;9.984;2022-07-10T02:51:28;5.80;;;3.90;;
17993;SDS011;9122;48.406;9.984;2022-07-10T02:54:13;4.30;;;3.90;;
17993;SDS011;9122;48.406;9.984;2022-07-10T02:56:57;4.53;;;4.23;;
17993;SDS011;9122;48.406;9.984;2022-07-10T02:59:41;4.53;;;4.23;;
17993;SDS011;9122;48.406;9.984;2022-07-10T03:02:26;4.30;;;4.00;;
17993;SDS011;9122;48.406;9.984;2022-07-10T03:05:11;5.27;;;4.77;;
17993;SDS011;9122;48.406;9.984;2022-07-10T03:07:55;3.97;;;3.67;;
17993;SDS011;9122;48.406;9.984;2022-07-10T03:10:40;5.17;;;4.63;;
17993;SDS011;9122;48.406;9.984;2022-07-10T03:13:24;4.20;;;3.90;;
17993;SDS011;9122;48.406;9.984;2022-07-10T03:16:09;4.50;;;4.17;;
17993;SDS011;9122;48.406;9.984;2022-07-10T03:18:53;4.83;;;4.43;;
17993;SDS011;9122;48.406;9.984;2022-07-10T03:21:39;5.43;;;5.07;;
17993;SDS011;9122;48.406;9.984;2022-07-10T03:24:23;5.43;;;5.03;;
17993;SDS011;9122;48.406;9.984;2022-07-10T03:27:07;6.43;;;5.87;;
17993;SDS011;9122;48.406;9.984;2022-07-10T03:29:51;5.27;;;4.87;;
17993;SDS011;9122;48.406;9.984;2022-07-10T03:32:35;5.83;;;5.33;;
17993;SDS011;9122;48.406;9.984;2022-07-10T03:35:20;6.30;;;5.70;;
17993;SDS011;9122;48.406;9.984;2022-07-10T03:38:05;5.43;;;5.00;;
17993;SDS011;9122;48.406;9.984;2022-07-10T03:40:49;6.27;;;5.77;;
17993;SDS011;9122;48.406;9.984;2022-07-10T03:43:34;5.83;;;5.33;;
17993;SDS011;9122;48.406;9.984;2022-07-10T03:46:18;5.87;;;5.40;;
17993;SDS011;9122;48.406;9.984;2022-07-10T03:49:03;6.33;;;5.83;;
17993;SDS011;9122;48.406;9.984;2022-07-10T03:51:47;6.77;;;6.27;;
17993;SDS011;9122;48.406;9.984;2022-07-10T03:54:31;6.27;;;5.77;;
17993;SDS011;9122;48.406;9.984;2022-07-10T03:57:16;6.53;;;6.03;;
17993;SDS011;9122;48.406;9.984;2022-07-10T04:00:26;6.53;;;6.03;;
17993;SDS011;9122;48.406;9.984;2022-07-10T04:03:11;5.70;;;5.30;;
17993;SDS011;9122;48.406;9.984;2022-07-10T04:05:57;5.70;;;5.30;;
17993;SDS011;9122;48.406;9.984;2022-07-10T04:08:41;5.53;;;5.13;;
17993;SDS011;9122;48.406;9.984;2022-07-10T04:11:26;5.97;;;5.47;;
17993;SDS011;9122;48.406;9.984;2022-07-10T04:14:10;6.10;;;5.60;;
17993;SDS011;9122;48.406;9.984;2022-07-10T04:16:54;6.63;;;6.03;;
17993;SDS011;9122;48.406;9.984;2022-07-10T04:19:38;6.23;;;5.53;;
17993;SDS011;9122;48.406;9.984;2022-07-10T04:22:22;7.23;;;6.13;;
17993;SDS011;9122;48.406;9.984;2022-07-10T04:25:07;6.00;;;5.60;;
17993;SDS011;9122;48.406;9.984;2022-07-10T04:27:53;6.70;;;6.20;;
17993;SDS011;9122;48.406;9.984;2022-07-10T04:30:37;6.40;;;5.80;;
17993;SDS011;9122;48.406;9.984;2022-07-10T04:33:22;6.40;;;5.90;;
17993;SDS011;9122;48.406;9.984;2022-07-10T04:36:06;6.30;;;5.80;;
17993;SDS011;9122;48.406;9.984;2022-07-10T04:38:50;5.87;;;5.47;;
17993;SDS011;9122;48.406;9.984;2022-07-10T04:41:35;6.97;;;5.67;;
17993;SDS011;9122;48.406;9.984;2022-07-10T04:44:19;6.80;;;6.30;;
17993;SDS011;9122;48.406;9.984;2022-07-10T04:47:05;6.70;;;6.10;;
17993;SDS011;9122;48.406;9.984;2022-07-10T04:49:49;7.70;;;6.97;;
17993;SDS011;9122;48.406;9.984;2022-07-10T04:52:34;7.27;;;6.67;;
17993;SDS011;9122;48.406;9.984;2022-07-10T04:55:19;6.80;;;6.30;;
17993;SDS011;9122;48.406;9.984;2022-07-10T04:58:05;6.00;;;5.60;;
17993;SDS011;9122;48.406;9.984;2022-07-10T05:00:49;7.60;;;6.70;;
17993;SDS011;9122;48.406;9.984;2022-07-10T05:03:34;5.77;;;5.27;;
17993;SDS011;9122;48.406;9.984;2022-07-10T05:06:19;7.00;;;6.47;;
17993;SDS011;9122;48.406;9.984;2022-07-10T05:09:04;7.43;;;6.73;;
17993;SDS011;9122;48.406;9.984;2022-07-10T05:11:48;6.20;;;5.80;;
17993;SDS011;9122;48.406;9.984;2022-07-10T05:14:32;7.70;;;6.30;;
17993;SDS011;9122;48.406;9.984;2022-07-10T05:17:17;6.47;;;5.87;;
17993;SDS011;9122;48.406;9.984;2022-07-10T05:20:02;6.50;;;6.00;;
17993;SDS011;9122;48.406;9.984;2022-07-10T05:22:47;7.17;;;6.57;;
17993;SDS011;9122;48.406;9.984;2022-07-10T05:25:31;6.77;;;6.27;;
17993;SDS011;9122;48.406;9.984;2022-07-10T05:28:16;6.63;;;6.03;;
17993;SDS011;9122;48.406;9.984;2022-07-10T05:31:01;6.77;;;5.60;;
17993;SDS011;9122;48.406;9.984;2022-07-10T05:33:45;6.73;;;6.13;;
17993;SDS011;9122;48.406;9.984;2022-07-10T05:36:30;6.83;;;6.33;;
17993;SDS011;9122;48.406;9.984;2022-07-10T05:39:14;6.20;;;5.70;;
17993;SDS011;9122;48.406;9.984;2022-07-10T05:41:59;6.53;;;6.00;;
17993;SDS011;9122;48.406;9.984;2022-07-10T05:44:43;6.00;;;5.37;;
17993;SDS011;9122;48.406;9.984;2022-07-10T05:47:28;6.90;;;6.23;;
17993;SDS011;9122;48.406;9.984;2022-07-10T05:50:12;6.33;;;5.57;;
17993;SDS011;9122;48.406;9.984;2022-07-10T05:52:57;6.03;;;5.53;;
17993;SDS011;9122;48.406;9.984;2022-07-10T05:55:42;6.60;;;5.97;;
17993;SDS011;9122;48.406;9.984;2022-07-10T05:58:26;6.13;;;5.40;;
17993;SDS011;9122;48.406;9.984;2022-07-10T06:01:11;5.67;;;5.27;;
17993;SDS011;9122;48.406;9.984;2022-07-10T06:03:56;5.50;;;5.10;;
17993;SDS011;9122;48.406;9.984;2022-07-10T06:06:40;5.90;;;5.40;;
17993;SDS011;9122;48.406;9.984;2022-07-10T06:09:25;5.57;;;5.10;;
17993;SDS011;9122;48.406;9.984;2022-07-10T06:12:09;5.63;;;5.10;;
17993;SDS011;9122;48.406;9.984;2022-07-10T06:14:54;7.33;;;4.93;;
17993;SDS011;9122;48.406;9.984;2022-07-10T06:17:39;5.40;;;5.00;;
17993;SDS011;9122;48.406;9.984;2022-07-10T06:20:28;5.03;;;4.60;;
17993;SDS011;9122;48.406;9.984;2022-07-10T06:23:13;5.33;;;5.03;;
17993;SDS011;9122;48.406;9.984;2022-07-10T06:25:57;5.60;;;5.10;;
17993;SDS011;9122;48.406;9.984;2022-07-10T06:28:42;5.90;;;4.93;;
17993;SDS011;9122;48.406;9.984;2022-07-10T06:31:26;5.83;;;5.30;;
17993;SDS011;9122;48.406;9.984;2022-07-10T06:34:12;6.03;;;4.70;;
17993;SDS011;9122;48.406;9.984;2022-07-10T06:36:57;4.38;;;4.07;;
17993;SDS011;9122;48.406;9.984;2022-07-10T06:39:45;4.93;;;4.23;;
17993;SDS011;9122;48.406;9.984;2022-07-10T06:42:33;3.77;;;3.57;;
17993;SDS011;9122;48.406;9.984;2022-07-10T06:45:17;5.07;;;4.20;;
17993;SDS011;9122;48.406;9.984;2022-07-10T06:48:02;3.93;;;3.73;;
17993;SDS011;9122;48.406;9.984;2022-07-10T06:50:47;5.03;;;3.47;;
17993;SDS011;9122;48.406;9.984;2022-07-10T06:53:31;4.07;;;3.80;;
17993;SDS011;9122;48.406;9.984;2022-07-10T06:56:16;4.53;;;3.88;;
17993;SDS011;9122;48.406;9.984;2022-07-10T06:59:01;3.92;;;3.63;;
17993;SDS011;9122;48.406;9.984;2022-07-10T07:01:46;3.72;;;3.42;;
17993;SDS011;9122;48.406;9.984;2022-07-10T07:04:30;3.25;;;3.05;;
17993;SDS011;9122;48.406;9.984;2022-07-10T07:07:15;3.42;;;3.20;;
17993;SDS011;9122;48.406;9.984;2022-07-10T07:10:00;3.47;;;3.20;;
17993;SDS011;9122;48.406;9.984;2022-07-10T07:12:46;3.03;;;2.83;;
17993;SDS011;9122;48.406;9.984;2022-07-10T07:15:31;3.53;;;3.33;;
17993;SDS011;9122;48.406;9.984;2022-07-10T07:18:19;2.70;;;2.60;;
17993;SDS011;9122;48.406;9.984;2022-07-10T07:21:06;3.33;;;3.03;;
17993;SDS011;9122;48.406;9.984;2022-07-10T07:24:26;2.92;;;2.72;;
17993;SDS011;9122;48.406;9.984;2022-07-10T07:27:10;3.60;;;3.30;;
17993;SDS011;9122;48.406;9.984;2022-07-10T07:29:56;2.55;;;2.42;;
17993;SDS011;9122;48.406;9.984;2022-07-10T07:32:40;2.85;;;2.63;;
17993;SDS011;9122;48.406;9.984;2022-07-10T07:35:25;3.53;;;3.22;;
17993;SDS011;9122;48.406;9.984;2022-07-10T07:38:10;2.92;;;2.72;;
17993;SDS011;9122;48.406;9.984;2022-07-10T07:40:55;3.47;;;2.42;;
17993;SDS011;9122;48.406;9.984;2022-07-10T07:43:40;2.83;;;2.70;;
17993;SDS011;9122;48.406;9.984;2022-07-10T07:46:24;3.63;;;2.65;;
17993;SDS011;9122;48.406;9.984;2022-07-10T07:49:09;2.58;;;2.38;;
17993;SDS011;9122;48.406;9.984;2022-07-10T07:51:53;2.70;;;2.50;;
17993;SDS011;9122;48.406;9.984;2022-07-10T07:54:37;2.10;;;1.80;;
17993;SDS011;9122;48.406;9.984;2022-07-10T07:57:22;2.33;;;2.20;;
17993;SDS011;9122;48.406;9.984;2022-07-10T08:00:06;2.60;;;2.40;;
17993;SDS011;9122;48.406;9.984;2022-07-10T08:02:52;4.10;;;2.20;;
17993;SDS011;9122;48.406;9.984;2022-07-10T08:05:38;2.25;;;2.00;;
17993;SDS011;9122;48.406;9.984;2022-07-10T08:08:22;2.22;;;2.10;;
17993;SDS011;9122;48.406;9.984;2022-07-10T08:11:07;3.33;;;2.10;;
17993;SDS011;9122;48.406;9.984;2022-07-10T08:13:52;1.77;;;1.67;;
17993;SDS011;9122;48.406;9.984;2022-07-10T08:16:36;3.72;;;1.65;;
17993;SDS011;9122;48.406;9.984;2022-07-10T08:19:20;1.98;;;1.88;;
17993;SDS011;9122;48.406;9.984;2022-07-10T08:22:04;2.00;;;1.90;;
17993;SDS011;9122;48.406;9.984;2022-07-10T08:24:49;2.10;;;1.90;;
17993;SDS011;9122;48.406;9.984;2022-07-10T08:27:33;2.08;;;1.75;;
17993;SDS011;9122;48.406;9.984;2022-07-10T08:30:18;2.40;;;2.08;;
17993;SDS011;9122;48.406;9.984;2022-07-10T08:33:03;2.10;;;2.00;;
17993;SDS011;9122;48.406;9.984;2022-07-10T08:35:47;2.00;;;1.90;;
17993;SDS011;9122;48.406;9.984;2022-07-10T08:38:32;2.65;;;1.63;;
17993;SDS011;9122;48.406;9.984;2022-07-10T08:41:17;3.65;;;1.95;;
17993;SDS011;9122;48.406;9.984;2022-07-10T08:44:03;1.83;;;1.60;;
17993;SDS011;9122;48.406;9.984;2022-07-10T08:46:47;3.33;;;2.15;;
17993;SDS011;9122;48.406;9.984;2022-07-10T08:49:33;3.30;;;2.00;;
17993;SDS011;9122;48.406;9.984;2022-07-10T08:55:25;2.90;;;1.92;;
17993;SDS011;9122;48.406;9.984;2022-07-10T08:58:09;1.90;;;1.80;;
17993;SDS011;9122;48.406;9.984;2022-07-10T09:00:56;2.05;;;1.95;;
17993;SDS011;9122;48.406;9.984;2022-07-10T09:03:41;2.45;;;2.25;;
17993;SDS011;9122;48.406;9.984;2022-07-10T09:06:26;2.53;;;2.33;;
17993;SDS011;9122;48.406;9.984;2022-07-10T09:09:12;2.47;;;2.33;;
17993;SDS011;9122;48.406;9.984;2022-07-10T09:11:57;2.17;;;2.08;;
17993;SDS011;9122;48.406;9.984;2022-07-10T09:14:42;2.30;;;1.90;;
17993;SDS011;9122;48.406;9.984;2022-07-10T09:17:27;2.20;;;1.85;;
17993;SDS011;9122;48.406;9.984;2022-07-10T09:20:23;3.42;;;2.03;;
17993;SDS011;9122;48.406;9.984;2022-07-10T09:23:19;2.03;;;1.92;;
17993;SDS011;9122;48.406;9.984;2022-07-10T09:26:06;2.00;;;1.90;;
17993;SDS011;9122;48.406;9.984;2022-07-10T09:28:53;2.28;;;1.90;;
17993;SDS011;9122;48.406;9.984;2022-07-10T09:31:54;2.13;;;2.03;;
17993;SDS011;9122;48.406;9.984;2022-07-10T09:34:49;2.15;;;2.00;;
17993;SDS011;9122;48.406;9.984;2022-07-10T09:37:54;2.25;;;2.15;;
17993;SDS011;9122;48.406;9.984;2022-07-10T09:40:40;2.22;;;2.13;;
17993;SDS011;9122;48.406;9.984;2022-07-10T09:43:24;2.35;;;2.15;;
17993;SDS011;9122;48.406;9.984;2022-07-10T09:46:08;2.88;;;2.55;;
17993;SDS011;9122;48.406;9.984;2022-07-10T09:49:06;2.22;;;2.13;;
17993;SDS011;9122;48.406;9.984;2022-07-10T09:51:51;2.10;;;2.00;;
17993;SDS011;9122;48.406;9.984;2022-07-10T09:54:35;2.20;;;2.08;;
17993;SDS011;9122;48.406;9.984;2022-07-10T09:57:20;2.38;;;2.28;;
17993;SDS011;9122;48.406;9.984;2022-07-10T10:00:10;2.03;;;1.80;;
17993;SDS011;9122;48.406;9.984;2022-07-10T10:02:56;2.45;;;2.00;;
17993;SDS011;9122;48.406;9.984;2022-07-10T10:05:43;1.88;;;1.77;;
17993;SDS011;9122;48.406;9.984;2022-07-10T10:08:29;2.30;;;2.15;;
17993;SDS011;9122;48.406;9.984;2022-07-10T10:11:35;2.33;;;2.13;;
17993;SDS011;9122;48.406;9.984;2022-07-10T10:14:20;2.00;;;1.90;;
17993;SDS011;9122;48.406;9.984;2022-07-10T10:17:07;2.20;;;2.00;;
17993;SDS011;9122;48.406;9.984;2022-07-10T10:19:52;2.30;;;2.10;;
17993;SDS011;9122;48.406;9.984;2022-07-10T10:22:58;3.28;;;1.83;;
17993;SDS011;9122;48.406;9.984;2022-07-10T10:25:44;1.80;;;1.70;;
17993;SDS011;9122;48.406;9.984;2022-07-10T10:28:30;2.45;;;2.25;;
17993;SDS011;9122;48.406;9.984;2022-07-10T10:31:18;2.90;;;1.75;;
17993;SDS011;9122;48.406;9.984;2022-07-10T10:34:03;2.00;;;1.80;;
17993;SDS011;9122;48.406;9.984;2022-07-10T10:36:48;2.20;;;2.05;;
17993;SDS011;9122;48.406;9.984;2022-07-10T10:39:51;2.00;;;1.90;;
17993;SDS011;9122;48.406;9.984;2022-07-10T10:42:42;2.28;;;2.05;;
17993;SDS011;9122;48.406;9.984;2022-07-10T10:45:32;1.80;;;1.70;;
17993;SDS011;9122;48.406;9.984;2022-07-10T10:48:18;2.00;;;1.80;;
17993;SDS011;9122;48.406;9.984;2022-07-10T10:51:06;2.22;;;2.13;;
17993;SDS011;9122;48.406;9.984;2022-07-10T10:54:03;1.75;;;1.65;;
17993;SDS011;9122;48.406;9.984;2022-07-10T10:59:55;2.38;;;2.00;;
17993;SDS011;9122;48.406;9.984;2022-07-10T11:02:39;2.78;;;1.75;;
17993;SDS011;9122;48.406;9.984;2022-07-10T11:11:38;2.10;;;1.77;;
17993;SDS011;9122;48.406;9.984;2022-07-10T11:14:23;2.05;;;1.95;;
17993;SDS011;9122;48.406;9.984;2022-07-10T11:17:12;1.90;;;1.80;;
17993;SDS011;9122;48.406;9.984;2022-07-10T11:19:56;1.80;;;1.70;;
17993;SDS011;9122;48.406;9.984;2022-07-10T11:28:52;2.25;;;1.60;;
17993;SDS011;9122;48.406;9.984;2022-07-10T11:31:41;2.30;;;1.60;;
17993;SDS011;9122;48.406;9.984;2022-07-10T11:34:35;1.92;;;1.70;;
17993;SDS011;9122;48.406;9.984;2022-07-10T11:37:20;3.22;;;2.22;;
17993;SDS011;9122;48.406;9.984;2022-07-10T11:40:12;2.15;;;2.05;;
17993;SDS011;9122;48.406;9.984;2022-07-10T11:42:57;2.50;;;2.40;;
17993;SDS011;9122;48.406;9.984;2022-07-10T11:45:43;4.85;;;2.22;;
17993;SDS011;9122;48.406;9.984;2022-07-10T11:48:28;3.92;;;1.88;;
17993;SDS011;9122;48.406;9.984;2022-07-10T11:51:16;2.28;;;2.10;;
17993;SDS011;9122;48.406;9.984;2022-07-10T11:56:52;1.60;;;1.55;;
17993;SDS011;9122;48.406;9.984;2022-07-10T11:59:37;5.22;;;2.25;;
17993;SDS011;9122;48.406;9.984;2022-07-10T12:02:22;1.67;;;1.58;;
17993;SDS011;9122;48.406;9.984;2022-07-10T12:05:07;1.63;;;1.58;;
17993;SDS011;9122;48.406;9.984;2022-07-10T12:07:51;2.42;;;2.25;;
17993;SDS011;9122;48.406;9.984;2022-07-10T12:10:36;1.60;;;1.50;;
17993;SDS011;9122;48.406;9.984;2022-07-10T12:13:20;1.70;;;1.60;;
17993;SDS011;9122;48.406;9.984;2022-07-10T12:16:05;2.03;;;1.55;;
17993;SDS011;9122;48.406;9.984;2022-07-10T12:18:50;1.65;;;1.55;;
17993;SDS011;9122;48.406;9.984;2022-07-10T12:21:35;1.63;;;1.52;;
17993;SDS011;9122;48.406;9.984;2022-07-10T12:24:20;1.83;;;1.65;;
17993;SDS011;9122;48.406;9.984;2022-07-10T12:27:05;1.90;;;1.80;;
17993;SDS011;9122;48.406;9.984;2022-07-10T12:29:59;2.45;;;1.80;;
17993;SDS011;9122;48.406;9.984;2022-07-10T12:32:44;4.53;;;2.20;;
17993;SDS011;9122;48.406;9.984;2022-07-10T12:35:29;2.00;;;1.90;;
17993;SDS011;9122;48.406;9.984;2022-07-10T12:38:15;2.03;;;1.83;;
17993;SDS011;9122;48.406;9.984;2022-07-10T12:41:09;1.98;;;1.73;;
17993;SDS011;9122;48.406;9.984;2022-07-10T12:43:57;1.83;;;1.63;;
17993;SDS011;9122;48.406;9.984;2022-07-10T12:46:42;2.85;;;1.52;;
17993;SDS011;9122;48.406;9.984;2022-07-10T12:49:26;1.30;;;1.20;;
17993;SDS011;9122;48.406;9.984;2022-07-10T12:52:18;2.38;;;1.85;;
17993;SDS011;9122;48.406;9.984;2022-07-10T12:55:17;1.90;;;1.80;;
17993;SDS011;9122;48.406;9.984;2022-07-10T12:58:09;2.05;;;1.38;;
17993;SDS011;9122;48.406;9.984;2022-07-10T13:00:56;1.95;;;1.38;;
17993;SDS011;9122;48.406;9.984;2022-07-10T13:03:40;1.92;;;1.45;;
17993;SDS011;9122;48.406;9.984;2022-07-10T13:06:32;2.00;;;1.75;;
17993;SDS011;9122;48.406;9.984;2022-07-10T13:09:21;1.60;;;1.50;;
17993;SDS011;9122;48.406;9.984;2022-07-10T13:12:07;1.65;;;1.55;;
17993;SDS011;9122;48.406;9.984;2022-07-10T13:14:51;1.20;;;1.20;;
17993;SDS011;9122;48.406;9.984;2022-07-10T13:17:43;1.30;;;1.20;;
17993;SDS011;9122;48.406;9.984;2022-07-10T13:20:28;1.58;;;1.20;;
17993;SDS011;9122;48.406;9.984;2022-07-10T13:23:12;3.08;;;1.50;;
17993;SDS011;9122;48.406;9.984;2022-07-10T13:25:58;1.30;;;1.20;;
17993;SDS011;9122;48.406;9.984;2022-07-10T13:28:45;1.60;;;1.50;;
17993;SDS011;9122;48.406;9.984;2022-07-10T13:31:29;1.42;;;1.42;;
17993;SDS011;9122;48.406;9.984;2022-07-10T13:34:14;2.42;;;1.27;;
17993;SDS011;9122;48.406;9.984;2022-07-10T13:37:00;1.48;;;1.38;;
17993;SDS011;9122;48.406;9.984;2022-07-10T13:39:45;2.08;;;1.38;;
17993;SDS011;9122;48.406;9.984;2022-07-10T13:42:29;1.83;;;1.73;;
17993;SDS011;9122;48.406;9.984;2022-07-10T13:45:14;1.30;;;1.30;;
17993;SDS011;9122;48.406;9.984;2022-07-10T13:47:58;2.00;;;1.13;;
17993;SDS011;9122;48.406;9.984;2022-07-10T13:50:43;1.55;;;1.45;;
17993;SDS011;9122;48.406;9.984;2022-07-10T13:53:30;1.77;;;1.67;;
17993;SDS011;9122;48.406;9.984;2022-07-10T13:56:15;1.98;;;1.60;;
17993;SDS011;9122;48.406;9.984;2022-07-10T13:59:00;1.92;;;1.50;;
17993;SDS011;9122;48.406;9.984;2022-07-10T14:01:45;2.20;;;1.10;;
17993;SDS011;9122;48.406;9.984;2022-07-10T14:04:30;1.10;;;1.10;;
17993;SDS011;9122;48.406;9.984;2022-07-10T14:07:14;1.20;;;1.13;;
17993;SDS011;9122;48.406;9.984;2022-07-10T14:09:59;3.17;;;1.30;;
17993;SDS011;9122;48.406;9.984;2022-07-10T14:12:45;1.50;;;1.40;;
17993;SDS011;9122;48.406;9.984;2022-07-10T14:15:30;1.63;;;1.52;;
17993;SDS011;9122;48.406;9.984;2022-07-10T14:18:16;1.42;;;1.33;;
17993;SDS011;9122;48.406;9.984;2022-07-10T14:21:18;1.48;;;1.35;;
17993;SDS011;9122;48.406;9.984;2022-07-10T14:24:02;1.55;;;1.45;;
17993;SDS011;9122;48.406;9.984;2022-07-10T14:26:47;1.77;;;1.52;;
17993;SDS011;9122;48.406;9.984;2022-07-10T14:29:31;1.33;;;1.25;;
17993;SDS011;9122;48.406;9.984;2022-07-10T14:32:16;1.20;;;1.20;;
17993;SDS011;9122;48.406;9.984;2022-07-10T14:35:00;1.45;;;1.40;;
17993;SDS011;9122;48.406;9.984;2022-07-10T14:37:45;3.05;;;1.65;;
17993;SDS011;9122;48.406;9.984;2022-07-10T14:40:30;1.67;;;1.55;;
17993;SDS011;9122;48.406;9.984;2022-07-10T14:43:17;1.40;;;1.30;;
17993;SDS011;9122;48.406;9.984;2022-07-10T14:46:02;1.38;;;1.20;;
17993;SDS011;9122;48.406;9.984;2022-07-10T14:48:50;1.30;;;1.20;;
17993;SDS011;9122;48.406;9.984;2022-07-10T14:51:35;1.45;;;1.35;;
17993;SDS011;9122;48.406;9.984;2022-07-10T14:54:19;2.10;;;1.40;;
17993;SDS011;9122;48.406;9.984;2022-07-10T14:57:04;1.40;;;1.30;;
17993;SDS011;9122;48.406;9.984;2022-07-10T14:59:48;1.55;;;1.45;;
17993;SDS011;9122;48.406;9.984;2022-07-10T15:02:33;1.30;;;1.15;;
17993;SDS011;9122;48.406;9.984;2022-07-10T15:05:17;2.05;;;1.48;;
17993;SDS011;9122;48.406;9.984;2022-07-10T15:08:03;1.45;;;1.38;;
17993;SDS011;9122;48.406;9.984;2022-07-10T15:10:47;1.40;;;1.25;;
17993;SDS011;9122;48.406;9.984;2022-07-10T15:13:32;1.33;;;1.33;;
17993;SDS011;9122;48.406;9.984;2022-07-10T15:16:17;1.60;;;1.50;;
17993;SDS011;9122;48.406;9.984;2022-07-10T15:19:02;2.85;;;1.33;;
17993;SDS011;9122;48.406;9.984;2022-07-10T15:21:46;1.98;;;1.40;;
17993;SDS011;9122;48.406;9.984;2022-07-10T15:24:31;4.75;;;1.42;;
17993;SDS011;9122;48.406;9.984;2022-07-10T15:27:15;1.10;;;1.10;;
17993;SDS011;9122;48.406;9.984;2022-07-10T15:30:00;1.05;;;1.05;;
17993;SDS011;9122;48.406;9.984;2022-07-10T15:32:45;1.48;;;1.38;;
17993;SDS011;9122;48.406;9.984;2022-07-10T15:35:30;2.65;;;1.65;;
17993;SDS011;9122;48.406;9.984;2022-07-10T15:38:15;1.48;;;1.48;;
17993;SDS011;9122;48.406;9.984;2022-07-10T15:40:59;1.33;;;1.23;;
17993;SDS011;9122;48.406;9.984;2022-07-10T15:43:43;0.95;;;0.95;;
17993;SDS011;9122;48.406;9.984;2022-07-10T15:46:29;2.75;;;1.13;;
17993;SDS011;9122;48.406;9.984;2022-07-10T15:49:13;1.17;;;1.10;;
17993;SDS011;9122;48.406;9.984;2022-07-10T15:51:58;1.50;;;1.40;;
17993;SDS011;9122;48.406;9.984;2022-07-10T15:54:46;1.33;;;1.33;;
17993;SDS011;9122;48.406;9.984;2022-07-10T15:57:30;2.20;;;1.63;;
17993;SDS011;9122;48.406;9.984;2022-07-10T16:00:15;1.58;;;1.48;;
17993;SDS011;9122;48.406;9.984;2022-07-10T16:02:59;1.58;;;1.50;;
17993;SDS011;9122;48.406;9.984;2022-07-10T16:05:43;2.72;;;1.45;;
17993;SDS011;9122;48.406;9.984;2022-07-10T16:08:28;1.13;;;1.13;;
17993;SDS011;9122;48.406;9.984;2022-07-10T16:11:12;1.95;;;1.20;;
17993;SDS011;9122;48.406;9.984;2022-07-10T16:13:58;1.25;;;1.25;;
17993;SDS011;9122;48.406;9.984;2022-07-10T16:16:42;1.30;;;1.30;;
17993;SDS011;9122;48.406;9.984;2022-07-10T16:19:27;1.67;;;1.58;;
17993;SDS011;9122;48.406;9.984;2022-07-10T16:22:12;0.90;;;0.90;;
17993;SDS011;9122;48.406;9.984;2022-07-10T16:24:57;1.17;;;1.17;;
17993;SDS011;9122;48.406;9.984;2022-07-10T16:28:10;1.25;;;1.23;;
17993;SDS011;9122;48.406;9.984;2022-07-10T16:30:55;1.40;;;1.30;;
17993;SDS011;9122;48.406;9.984;2022-07-10T16:33:39;1.10;;;1.10;;
17993;SDS011;9122;48.406;9.984;2022-07-10T16:36:24;1.00;;;1.00;;
17993;SDS011;9122;48.406;9.984;2022-07-10T16:39:09;1.13;;;1.13;;
17993;SDS011;9122;48.406;9.984;2022-07-10T16:41:53;1.25;;;1.25;;
17993;SDS011;9122;48.406;9.984;2022-07-10T16:44:38;1.30;;;1.30;;
17993;SDS011;9122;48.406;9.984;2022-07-10T16:47:28;1.95;;;1.30;;
17993;SDS011;9122;48.406;9.984;2022-07-10T16:50:14;1.55;;;1.27;;
17993;SDS011;9122;48.406;9.984;2022-07-10T16:52:59;1.52;;;1.42;;
17993;SDS011;9122;48.406;9.984;2022-07-10T16:55:44;1.00;;;1.00;;
17993;SDS011;9122;48.406;9.984;2022-07-10T16:58:28;3.10;;;1.70;;
17993;SDS011;9122;48.406;9.984;2022-07-10T17:01:12;1.67;;;1.20;;
17993;SDS011;9122;48.406;9.984;2022-07-10T17:03:57;1.10;;;1.05;;
17993;SDS011;9122;48.406;9.984;2022-07-10T17:06:41;1.65;;;1.17;;
17993;SDS011;9122;48.406;9.984;2022-07-10T17:09:25;1.15;;;1.13;;
17993;SDS011;9122;48.406;9.984;2022-07-10T17:12:10;1.10;;;1.10;;
17993;SDS011;9122;48.406;9.984;2022-07-10T17:14:55;3.92;;;1.15;;